Terminal Aerodrome Forecast
Issued by NWS Detroit/Pontiac, MI

Home | Current Version | Previous Version | Text Only | Print | Product List | Glossary On
Versions: 1 2 3 4 5 6 7 8 9 10 11 12 13 14 15 16 17 18 19 20 21 22 23 24 25 26
000
FTUS43 KDTX 301319 AAA
TAFDTW
TAF AMD
KDTW 301319Z 3013/3118 30005KT P6SM SCT040 BKN150
     FM302000 23008KT P6SM BKN045 OVC120
     FM310200 23005KT 6SM -SHRA OVC035
     FM311300 27006KT 5SM -SHRA OVC025=

USA.gov is the U.S. government's official web portal to all federal, state and local government web resources and services.